Time;durP1;ratioP1;P1;durP2;ratioP2;P2;SDS_P1;SDS_P2;PMS_P1;PMS_P2;Temp;Humidity;BMP_temperature;BMP_pressure;BME280_temperature;BME280_humidity;BME280_pressure;Samples;Min_cycle;Max_cycle;Signal;HPM_P1;HPM_P2
2022/12/14 00:01:09;;;;;;;9.45;6.03;;;1.10;99.90;;;;;;5011624;28;20178;-73
2022/12/14 00:03:35;;;;;;;5.63;4.45;;;1.20;99.90;;;;;;5011397;28;20278;-73
2022/12/14 00:06:29;;;;;;;7.10;5.18;;;1.20;99.90;;;;;;4995473;28;20181;-73
2022/12/14 00:08:57;;;;;;;6.60;4.80;;;1.20;99.90;;;;;;5008460;28;20196;-73
2022/12/14 00:11:24;;;;;;;8.95;5.07;;;1.10;99.90;;;;;;5011284;28;20216;-73
2022/12/14 00:13:58;;;;;;;8.05;5.00;;;1.20;99.90;;;;;;5028676;28;20197;-73
2022/12/14 00:16:25;;;;;;;9.55;5.60;;;1.10;99.90;;;;;;5011612;28;20177;-73
2022/12/14 00:18:53;;;;;;;9.25;6.15;;;1.20;99.90;;;;;;4994373;28;20255;-73
2022/12/14 00:21:20;;;;;;;9.93;5.45;;;1.10;99.90;;;;;;5028896;28;20185;-73
2022/12/14 00:23:47;;;;;;;9.18;5.50;;;1.10;99.90;;;;;;5006310;28;20196;-73
2022/12/14 00:26:18;;;;;;;7.78;5.20;;;1.10;99.90;;;;;;4985507;28;20174;-73
2022/12/14 00:28:45;;;;;;;7.68;5.38;;;1.10;99.90;;;;;;5020091;28;20633;-73
2022/12/14 00:31:12;;;;;;;7.10;4.90;;;1.20;99.90;;;;;;5018822;28;20289;-73
2022/12/14 00:33:38;;;;;;;7.57;4.90;;;1.20;99.90;;;;;;5028756;28;20530;-73
2022/12/14 00:36:05;;;;;;;7.45;4.22;;;1.20;99.90;;;;;;5028963;28;20208;-73
2022/12/14 00:38:31;;;;;;;7.00;4.88;;;1.20;99.90;;;;;;5010391;28;20192;-73
2022/12/14 00:40:57;;;;;;;8.60;5.23;;;1.20;99.90;;;;;;5011319;28;20189;-73
2022/12/14 00:43:23;;;;;;;8.00;5.63;;;1.20;99.90;;;;;;5029535;28;20632;-73
2022/12/14 00:45:49;;;;;;;7.55;5.30;;;1.20;99.90;;;;;;5032578;28;21144;-73
2022/12/14 00:48:18;;;;;;;8.57;5.63;;;1.20;99.90;;;;;;5014427;28;20269;-73
2022/12/14 00:50:45;;;;;;;8.55;5.95;;;1.20;99.90;;;;;;5032418;28;20309;-73
2022/12/14 00:53:11;;;;;;;7.55;5.15;;;1.20;99.90;;;;;;5031986;28;20245;-73
2022/12/14 00:55:38;;;;;;;7.43;4.80;;;1.20;99.90;;;;;;5014567;28;20228;-73
2022/12/14 00:58:05;;;;;;;8.73;3.97;;;1.20;99.90;;;;;;5032550;28;20624;-73
2022/12/14 01:02:56;;;;;;;6.50;5.10;;;1.30;99.90;;;;;;5031659;23;20228;-76
2022/12/14 01:05:21;;;;;;;8.03;4.97;;;1.30;99.90;;;;;;4985169;28;20570;-76
2022/12/14 01:07:47;;;;;;;6.80;4.30;;;1.30;99.90;;;;;;5016038;28;20190;-76
2022/12/14 01:10:13;;;;;;;9.90;6.03;;;1.40;99.90;;;;;;4995770;28;20225;-77
2022/12/14 01:12:39;;;;;;;9.83;5.90;;;1.40;99.90;;;;;;5006242;28;20191;-77
2022/12/14 01:15:05;;;;;;;8.25;5.65;;;1.40;99.90;;;;;;4985629;28;20584;-76
2022/12/14 01:17:31;;;;;;;6.88;5.10;;;1.40;99.90;;;;;;4984992;28;20175;-76
2022/12/14 01:19:57;;;;;;;6.33;4.53;;;1.40;99.90;;;;;;5011727;28;20231;-77
2022/12/14 01:22:23;;;;;;;6.70;4.20;;;1.40;99.90;;;;;;4999227;28;20691;-77
2022/12/14 01:24:48;;;;;;;6.03;4.47;;;1.40;99.90;;;;;;5023507;28;20186;-77
2022/12/14 01:27:14;;;;;;;5.20;3.63;;;1.50;99.90;;;;;;5015014;28;20599;-77
2022/12/14 01:29:40;;;;;;;6.73;4.67;;;1.50;99.90;;;;;;5030323;28;20182;-76
2022/12/14 01:32:06;;;;;;;6.10;4.40;;;1.50;99.90;;;;;;5014397;28;20305;-77
2022/12/14 01:34:32;;;;;;;7.00;3.80;;;1.50;99.90;;;;;;5033043;28;20573;-77
2022/12/14 01:36:57;;;;;;;8.10;4.57;;;1.50;99.90;;;;;;5030834;28;20177;-77
2022/12/14 01:39:23;;;;;;;7.60;4.70;;;1.50;99.90;;;;;;4982595;28;20197;-77
2022/12/14 01:41:53;;;;;;;7.23;3.77;;;1.50;99.90;;;;;;5028472;28;20208;-77
2022/12/14 01:44:19;;;;;;;8.35;4.55;;;1.50;99.90;;;;;;5026334;28;20166;-76
2022/12/14 01:46:50;;;;;;;7.70;6.00;;;1.50;99.90;;;;;;5008397;28;20654;-76
2022/12/14 01:49:27;;;;;;;7.88;4.85;;;1.40;99.90;;;;;;5012085;28;20177;-77
2022/12/14 01:52:13;;;;;;;5.80;4.00;;;1.40;99.90;;;;;;5011396;28;20257;-77
2022/12/14 01:55:04;;;;;;;6.60;4.13;;;1.40;99.90;;;;;;5029521;28;20273;-77
2022/12/14 01:57:38;;;;;;;6.07;4.15;;;1.40;99.90;;;;;;4998365;28;20178;-77
2022/12/14 02:00:09;;;;;;;5.78;4.10;;;1.40;99.90;;;;;;5026771;28;20180;-77
2022/12/14 02:02:39;;;;;;;7.13;4.60;;;1.40;99.90;;;;;;5006804;28;20206;-77
2022/12/14 02:05:08;;;;;;;5.70;4.60;;;1.30;99.90;;;;;;4975363;28;20241;-76
2022/12/14 02:07:34;;;;;;;7.18;3.25;;;1.30;99.90;;;;;;4986347;28;20198;-77
2022/12/14 02:10:03;;;;;;;6.00;4.40;;;1.30;99.90;;;;;;4986198;28;20584;-77
2022/12/14 02:13:04;;;;;;;6.30;4.00;;;1.30;99.90;;;;;;4987290;28;20688;-77
2022/12/14 02:15:32;;;;;;;5.57;4.07;;;1.30;99.90;;;;;;4935966;28;20268;-77
2022/12/14 02:18:00;;;;;;;5.90;4.00;;;1.30;99.90;;;;;;4985360;28;20230;-76
2022/12/14 02:20:41;;;;;;;6.25;4.40;;;1.20;99.90;;;;;;4984033;28;20159;-77
2022/12/14 02:23:38;;;;;;;5.95;4.28;;;1.20;99.90;;;;;;5004248;28;20175;-77
2022/12/14 02:26:34;;;;;;;5.20;3.20;;;1.20;99.90;;;;;;4990344;28;20185;-77
2022/12/14 02:29:00;;;;;;;6.43;3.58;;;1.20;99.90;;;;;;5005383;28;20167;-77
2022/12/14 02:31:45;;;;;;;8.40;4.45;;;1.10;99.90;;;;;;4988228;28;20203;-76
2022/12/14 02:34:21;;;;;;;6.68;3.90;;;1.10;99.90;;;;;;4973829;28;20203;-76
2022/12/14 02:37:01;;;;;;;6.03;4.13;;;1.10;99.90;;;;;;5010791;28;20174;-77
2022/12/14 02:39:41;;;;;;;6.50;4.10;;;1.10;99.90;;;;;;4995151;28;20181;-77
2022/12/14 02:42:52;;;;;;;6.75;4.10;;;1.00;99.90;;;;;;4977938;28;20199;-77
2022/12/14 02:45:25;;;;;;;8.50;5.13;;;1.00;99.90;;;;;;4919155;29;20225;-77
2022/12/14 02:47:58;;;;;;;7.07;4.80;;;1.10;99.90;;;;;;4987651;28;20183;-77
2022/12/14 02:50:30;;;;;;;4.90;3.58;;;1.10;99.90;;;;;;5010860;28;20238;-78
2022/12/14 02:53:04;;;;;;;7.72;4.43;;;1.10;99.90;;;;;;4993140;28;20194;-77
2022/12/14 02:55:39;;;;;;;6.90;4.67;;;1.10;99.90;;;;;;4991760;28;20230;-77
2022/12/14 02:58:46;;;;;;;6.93;4.32;;;1.00;99.90;;;;;;4995017;28;20214;-77
2022/12/14 03:01:15;;;;;;;6.10;3.50;;;1.10;99.90;;;;;;4981179;28;20238;-77
2022/12/14 03:03:45;;;;;;;7.10;4.38;;;1.10;99.90;;;;;;4960865;28;20186;-76
2022/12/14 03:06:24;;;;;;;7.40;4.50;;;1.10;99.90;;;;;;4993436;28;20198;-77
2022/12/14 03:08:53;;;;;;;7.45;4.22;;;1.00;99.90;;;;;;5008076;28;20171;-76
2022/12/14 03:11:33;;;;;;;4.85;3.75;;;1.10;99.90;;;;;;4976760;28;20278;-76
2022/12/14 03:14:26;;;;;;;5.47;3.45;;;1.00;99.90;;;;;;4992773;28;20182;-76
2022/12/14 03:16:55;;;;;;;6.90;3.92;;;1.10;99.90;;;;;;4979452;28;20848;-76
2022/12/14 03:19:36;;;;;;;6.15;3.30;;;1.10;99.90;;;;;;4989778;28;20179;-77
2022/12/14 03:22:16;;;;;;;6.97;4.53;;;1.20;99.90;;;;;;4972922;28;20203;-76
2022/12/14 03:24:47;;;;;;;6.10;4.70;;;1.10;99.90;;;;;;4957162;28;20751;-76
2022/12/14 03:27:24;;;;;;;4.30;3.08;;;1.10;99.90;;;;;;4973095;28;20240;-76
2022/12/14 03:30:04;;;;;;;5.95;3.95;;;1.20;99.90;;;;;;4989885;28;20185;-76
2022/12/14 03:32:33;;;;;;;6.38;3.60;;;1.20;99.90;;;;;;4972774;28;20301;-76
2022/12/14 03:35:31;;;;;;;4.72;3.40;;;1.30;99.90;;;;;;4989351;28;20167;-76
2022/12/14 03:38:30;;;;;;;6.18;3.67;;;1.30;99.90;;;;;;4950055;28;20191;-76
2022/12/14 03:41:27;;;;;;;4.80;3.33;;;1.30;99.90;;;;;;4990174;28;20187;-76
2022/12/14 03:44:07;;;;;;;5.75;2.92;;;1.40;99.90;;;;;;4974980;28;20191;-76
2022/12/14 03:46:38;;;;;;;4.70;3.05;;;1.40;99.90;;;;;;4977064;28;20183;-76
2022/12/14 03:49:19;;;;;;;5.72;3.05;;;1.40;99.90;;;;;;4975632;28;20194;-80
2022/12/14 03:52:02;;;;;;;7.15;3.60;;;1.40;99.90;;;;;;4974556;28;20573;-80
2022/12/14 03:54:50;;;;;;;5.05;3.65;;;1.40;99.90;;;;;;4974137;28;20179;-80
2022/12/14 03:57:43;;;;;;;3.58;3.22;;;1.40;99.90;;;;;;4973905;28;20193;-80
2022/12/14 04:00:19;;;;;;;5.97;3.65;;;1.40;99.90;;;;;;4974061;28;20171;-80
2022/12/14 04:02:52;;;;;;;5.57;3.50;;;1.30;99.90;;;;;;4974061;28;20210;-80
2022/12/14 04:05:44;;;;;;;6.15;3.90;;;1.30;99.90;;;;;;4993600;28;20174;-80
2022/12/14 04:08:18;;;;;;;6.95;4.10;;;1.30;99.90;;;;;;4972570;28;20187;-80
2022/12/14 04:19:55;;;;;;;7.93;4.90;;;1.30;99.90;;;;;;4975039;28;20226;-76
2022/12/14 04:22:25;;;;;;;6.53;3.92;;;1.30;99.90;;;;;;4960020;28;20286;-76
2022/12/14 04:28:02;;;;;;;5.70;3.55;;;1.30;99.90;;;;;;4976223;28;20183;-76
2022/12/14 04:30:32;;;;;;;4.85;3.90;;;1.30;99.90;;;;;;4993058;28;20179;-77
2022/12/14 04:35:55;;;;;;;4.35;3.50;;;1.40;99.90;;;;;;4976151;28;20257;-76
2022/12/14 04:38:27;;;;;;;5.22;3.72;;;1.40;99.90;;;;;;4993117;28;20179;-76
2022/12/14 04:40:59;;;;;;;5.20;3.28;;;1.40;99.90;;;;;;4960334;28;20195;-77
2022/12/14 04:43:35;;;;;;;4.45;3.50;;;1.40;99.90;;;;;;4992985;28;20182;-75
2022/12/14 04:46:06;;;;;;;7.40;4.30;;;1.40;99.90;;;;;;4976430;28;20171;-75
2022/12/14 04:48:41;;;;;;;9.43;4.65;;;1.50;99.90;;;;;;4943805;28;20182;-75
2022/12/14 04:51:13;;;;;;;6.15;3.85;;;1.40;99.90;;;;;;4960043;28;20213;-75
2022/12/14 04:53:42;;;;;;;8.85;4.72;;;1.40;99.90;;;;;;4996748;28;20194;-75
2022/12/14 04:56:23;;;;;;;5.45;3.90;;;1.40;99.90;;;;;;4976169;28;20639;-74
2022/12/14 04:58:49;;;;;;;6.47;3.95;;;1.40;99.90;;;;;;4959454;28;20175;-75
2022/12/14 05:01:34;;;;;;;4.80;3.20;;;1.40;99.90;;;;;;4975657;28;20210;-75
2022/12/14 05:04:07;;;;;;;5.20;3.03;;;1.40;99.90;;;;;;4993339;28;20167;-74
2022/12/14 05:06:56;;;;;;;7.18;4.47;;;1.50;99.90;;;;;;4975355;28;20182;-75
2022/12/14 05:09:30;;;;;;;5.60;3.50;;;1.50;99.90;;;;;;4930277;28;20190;-75
2022/12/14 05:11:59;;;;;;;4.20;3.45;;;1.50;99.90;;;;;;4992560;28;20749;-74
2022/12/14 05:14:57;;;;;;;8.50;3.50;;;1.50;99.90;;;;;;4975849;28;20179;-75
2022/12/14 05:17:23;;;;;;;7.70;3.90;;;1.50;99.90;;;;;;4969893;28;20183;-74
2022/12/14 05:19:50;;;;;;;7.20;4.10;;;1.50;99.90;;;;;;4992529;28;20230;-73
2022/12/14 05:22:16;;;;;;;5.15;3.15;;;1.50;99.90;;;;;;4992305;28;20257;-74
2022/12/14 05:24:42;;;;;;;5.78;4.22;;;1.50;99.90;;;;;;4975114;28;20175;-74
2022/12/14 05:27:08;;;;;;;5.43;3.80;;;1.50;99.90;;;;;;4992368;28;20950;-74
2022/12/14 05:29:34;;;;;;;5.10;3.73;;;1.50;99.90;;;;;;4974339;28;20599;-74
2022/12/14 05:32:00;;;;;;;5.33;3.20;;;1.50;99.90;;;;;;4977621;28;20203;-73
2022/12/14 05:34:26;;;;;;;4.32;3.05;;;1.50;99.90;;;;;;4974894;28;20175;-74
2022/12/14 05:36:52;;;;;;;4.93;3.90;;;1.50;99.90;;;;;;4974359;28;20174;-73
2022/12/14 05:39:19;;;;;;;6.20;4.53;;;1.60;99.90;;;;;;4991483;28;20195;-74
2022/12/14 05:41:44;;;;;;;6.03;3.63;;;1.60;99.90;;;;;;4973599;28;20318;-73
2022/12/14 05:44:10;;;;;;;6.17;4.23;;;1.60;99.90;;;;;;4974859;28;20183;-74
2022/12/14 05:46:36;;;;;;;7.70;5.07;;;1.60;99.90;;;;;;4974741;28;20175;-74
2022/12/14 05:49:02;;;;;;;6.43;4.03;;;1.50;99.90;;;;;;4974485;28;20539;-74
2022/12/14 05:51:27;;;;;;;4.50;3.80;;;1.50;99.90;;;;;;4974405;28;20297;-74
2022/12/14 05:53:53;;;;;;;6.23;3.80;;;1.50;99.90;;;;;;4992078;28;20626;-74
2022/12/14 05:56:19;;;;;;;6.80;4.30;;;1.50;99.90;;;;;;4974818;28;20175;-74
2022/12/14 05:58:49;;;;;;;5.50;3.45;;;1.50;99.90;;;;;;4974008;28;20229;-74
2022/12/14 06:01:14;;;;;;;5.85;3.92;;;1.50;99.90;;;;;;4974355;28;20237;-74
2022/12/14 06:03:40;;;;;;;3.90;3.07;;;1.50;99.90;;;;;;4992058;28;20611;-74
2022/12/14 06:06:12;;;;;;;4.83;3.17;;;1.50;99.90;;;;;;4974845;28;20187;-74
2022/12/14 06:08:40;;;;;;;4.28;2.83;;;1.60;99.90;;;;;;4975583;28;20183;-74
2022/12/14 06:11:14;;;;;;;5.35;3.63;;;1.60;99.90;;;;;;4974608;28;20215;-74
2022/12/14 06:13:41;;;;;;;6.07;4.85;;;1.60;99.90;;;;;;4974471;28;20185;-75
2022/12/14 06:16:08;;;;;;;5.85;3.78;;;1.60;99.90;;;;;;4958379;28;20175;-74
2022/12/14 06:18:34;;;;;;;6.20;3.65;;;1.60;99.90;;;;;;4973913;28;20179;-74
2022/12/14 06:21:00;;;;;;;7.20;4.43;;;1.60;99.90;;;;;;4974628;28;20226;-74
2022/12/14 06:23:27;;;;;;;5.25;3.85;;;1.60;99.90;;;;;;4974246;28;21157;-74
2022/12/14 06:25:54;;;;;;;6.13;4.43;;;1.60;99.90;;;;;;4992005;28;20183;-75
2022/12/14 06:28:20;;;;;;;6.95;4.60;;;1.60;99.90;;;;;;4992229;28;20499;-75
2022/12/14 06:30:47;;;;;;;4.82;3.60;;;1.60;99.90;;;;;;4973936;28;20210;-75
2022/12/14 06:33:12;;;;;;;5.95;3.20;;;1.60;99.90;;;;;;4958162;28;20175;-75
2022/12/14 06:35:43;;;;;;;6.10;4.03;;;1.60;99.90;;;;;;4990577;28;20171;-75
2022/12/14 06:38:09;;;;;;;6.63;3.95;;;1.60;99.90;;;;;;4974743;28;20582;-74
2022/12/14 06:40:35;;;;;;;7.40;4.50;;;1.60;99.90;;;;;;4990581;28;20171;-75
2022/12/14 06:43:00;;;;;;;7.50;3.90;;;1.60;99.90;;;;;;4990743;28;20589;-74
2022/12/14 06:45:28;;;;;;;11.07;5.28;;;1.60;99.90;;;;;;4975747;28;20351;-75
2022/12/14 06:47:54;;;;;;;5.07;4.00;;;1.60;99.90;;;;;;4991946;28;20663;-75
2022/12/14 06:50:19;;;;;;;8.20;4.40;;;1.60;99.90;;;;;;4973429;28;20185;-75
2022/12/14 06:52:49;;;;;;;6.87;4.00;;;1.60;99.90;;;;;;4973519;28;20725;-75
2022/12/14 06:55:14;;;;;;;4.65;3.58;;;1.60;99.90;;;;;;4941399;28;20179;-75
2022/12/14 06:57:40;;;;;;;4.23;3.47;;;1.70;99.90;;;;;;4973752;28;20230;-75
2022/12/14 07:00:11;;;;;;;6.70;4.20;;;1.70;99.90;;;;;;4973077;28;20186;-74
2022/12/14 07:02:38;;;;;;;6.32;3.83;;;1.70;99.90;;;;;;4992249;28;20637;-74
2022/12/14 07:05:05;;;;;;;6.15;3.67;;;1.70;99.90;;;;;;4990636;28;20183;-74
2022/12/14 07:07:34;;;;;;;8.15;3.95;;;1.70;99.90;;;;;;4972856;28;20182;-76
2022/12/14 07:10:01;;;;;;;6.07;4.22;;;1.70;99.90;;;;;;4956612;28;20199;-76
2022/12/14 07:12:27;;;;;;;5.18;3.58;;;1.70;99.90;;;;;;4989588;28;20214;-76
2022/12/14 07:14:54;;;;;;;8.15;5.05;;;1.70;99.90;;;;;;4990627;28;20186;-76
2022/12/14 07:17:23;;;;;;;6.25;4.13;;;1.70;99.90;;;;;;4990520;28;20282;-76
2022/12/14 07:19:49;;;;;;;5.63;3.42;;;1.70;99.90;;;;;;4973210;28;20266;-77
2022/12/14 07:22:15;;;;;;;6.90;4.43;;;1.70;99.90;;;;;;4972938;28;20297;-77
2022/12/14 07:24:42;;;;;;;7.28;4.07;;;1.70;99.90;;;;;;4974524;28;20211;-76
2022/12/14 07:27:07;;;;;;;5.85;3.92;;;1.70;99.90;;;;;;4990594;28;20175;-77
2022/12/14 07:29:33;;;;;;;4.90;3.40;;;1.70;99.90;;;;;;4956205;28;20245;-77
2022/12/14 07:31:59;;;;;;;7.10;4.70;;;1.70;99.90;;;;;;4990162;28;20658;-76
2022/12/14 07:34:25;;;;;;;7.97;4.40;;;1.70;99.90;;;;;;4980210;28;20707;-77
2022/12/14 07:36:52;;;;;;;10.80;3.97;;;1.70;99.90;;;;;;4990586;28;20621;-76
2022/12/14 07:39:19;;;;;;;9.18;4.75;;;1.70;99.90;;;;;;4990393;28;20586;-75
2022/12/14 07:41:46;;;;;;;8.15;5.32;;;1.70;99.90;;;;;;4973878;28;20199;-77
2022/12/14 07:44:19;;;;;;;11.63;5.50;;;1.70;99.90;;;;;;4997183;28;20717;-76
2022/12/14 07:46:45;;;;;;;13.30;5.30;;;1.70;99.90;;;;;;4992217;28;20174;-74
2022/12/14 07:49:11;;;;;;;6.30;4.57;;;1.70;99.90;;;;;;5009641;28;20682;-74
2022/12/14 07:51:43;;;;;;;9.30;5.10;;;1.70;99.90;;;;;;4991610;28;20292;-74
2022/12/14 07:54:10;;;;;;;9.82;5.70;;;1.70;99.90;;;;;;4992822;28;20198;-74
2022/12/14 07:56:38;;;;;;;5.95;4.22;;;1.60;99.90;;;;;;5008777;28;20179;-74
2022/12/14 07:59:07;;;;;;;9.23;4.40;;;1.70;99.90;;;;;;4992592;28;20655;-72
2022/12/14 08:01:35;;;;;;;19.13;5.45;;;1.70;99.90;;;;;;4992825;28;20214;-75
2022/12/14 08:04:06;;;;;;;8.05;5.90;;;1.70;99.90;;;;;;5009548;28;20189;-73
2022/12/14 08:06:33;;;;;;;7.53;5.00;;;1.70;99.90;;;;;;4991573;28;20217;-72
2022/12/14 08:09:00;;;;;;;9.38;4.93;;;1.70;99.90;;;;;;4991667;28;20200;-72
2022/12/14 08:11:26;;;;;;;6.55;3.67;;;1.70;99.90;;;;;;4991439;28;20202;-72
2022/12/14 08:14:01;;;;;;;9.93;5.40;;;1.80;99.90;;;;;;4991367;28;20631;-73
2022/12/14 08:16:27;;;;;;;7.72;6.20;;;1.80;99.90;;;;;;5009571;28;20166;-73
2022/12/14 08:18:55;;;;;;;7.57;4.97;;;1.80;99.90;;;;;;5008468;28;20241;-73
2022/12/14 08:21:22;;;;;;;8.48;5.13;;;1.80;99.90;;;;;;4990803;28;20209;-73
2022/12/14 08:23:49;;;;;;;5.55;3.65;;;1.80;99.90;;;;;;4995687;28;20186;-74
2022/12/14 08:26:16;;;;;;;5.70;4.38;;;1.90;99.90;;;;;;4992818;28;20617;-75
2022/12/14 08:28:43;;;;;;;7.00;4.43;;;1.90;99.90;;;;;;4988176;28;20184;-74
2022/12/14 08:31:17;;;;;;;7.63;4.90;;;2.00;99.90;;;;;;4936980;28;20295;-74
2022/12/14 08:33:44;;;;;;;5.97;3.85;;;2.00;99.90;;;;;;4936877;28;20215;-74
2022/12/14 08:36:21;;;;;;;7.32;5.10;;;2.10;99.90;;;;;;4953014;28;20474;-75
2022/12/14 08:38:58;;;;;;;9.00;5.20;;;2.20;99.90;;;;;;4953647;28;20190;-75
2022/12/14 08:41:25;;;;;;;8.43;5.15;;;2.20;99.90;;;;;;4965795;28;20232;-73
2022/12/14 08:43:56;;;;;;;7.82;6.13;;;2.20;99.90;;;;;;4968912;28;20342;-75
2022/12/14 08:46:23;;;;;;;7.22;6.00;;;2.20;99.90;;;;;;4976493;28;20244;-76
2022/12/14 08:48:51;;;;;;;6.78;5.43;;;2.20;99.90;;;;;;5010399;28;20244;-73
2022/12/14 08:51:17;;;;;;;9.52;6.40;;;2.20;99.90;;;;;;5010500;28;20208;-73
2022/12/14 08:53:46;;;;;;;7.53;5.55;;;2.20;99.90;;;;;;4975388;28;20582;-72
2022/12/14 08:56:14;;;;;;;6.57;5.10;;;2.20;99.90;;;;;;4989759;28;20171;-73
2022/12/14 08:58:40;;;;;;;6.32;4.40;;;2.20;99.90;;;;;;4972033;28;20269;-73
2022/12/14 09:01:12;;;;;;;8.07;4.30;;;2.20;99.90;;;;;;4989030;28;20278;-73
2022/12/14 09:03:40;;;;;;;6.28;5.13;;;2.30;99.90;;;;;;4972834;28;20183;-74
2022/12/14 09:06:08;;;;;;;12.20;6.10;;;2.30;99.90;;;;;;4985546;28;20194;-73
2022/12/14 09:08:35;;;;;;;8.77;6.05;;;2.30;99.90;;;;;;4992815;28;20202;-75
2022/12/14 09:11:03;;;;;;;10.40;6.00;;;2.20;99.90;;;;;;4975702;28;20202;-76
2022/12/14 09:13:29;;;;;;;10.10;6.38;;;2.20;99.90;;;;;;4991225;28;20167;-76
2022/12/14 09:16:00;;;;;;;11.60;6.53;;;2.20;99.90;;;;;;4979380;28;20167;-75
2022/12/14 09:18:27;;;;;;;8.05;6.10;;;2.20;99.90;;;;;;4994269;28;20186;-75
2022/12/14 09:20:54;;;;;;;8.68;6.53;;;2.10;99.90;;;;;;4976106;28;20249;-74
2022/12/14 09:23:25;;;;;;;10.40;6.10;;;2.10;99.90;;;;;;4991856;28;20175;-74
2022/12/14 09:26:17;;;;;;;8.60;7.00;;;2.10;99.90;;;;;;4975695;28;20274;-75
2022/12/14 09:28:51;;;;;;;10.77;6.18;;;2.00;99.90;;;;;;4992977;28;20190;-74
2022/12/14 09:31:20;;;;;;;12.25;7.80;;;2.00;99.90;;;;;;4990721;28;20206;-74
2022/12/14 09:33:46;;;;;;;7.35;5.70;;;2.00;99.90;;;;;;4975185;28;20537;-74
2022/12/14 09:36:13;;;;;;;7.95;5.70;;;2.10;99.90;;;;;;4992390;28;20250;-74
2022/12/14 09:38:40;;;;;;;11.75;6.90;;;2.10;99.90;;;;;;4974394;28;20254;-74
2022/12/14 09:41:33;;;;;;;13.07;5.60;;;2.10;99.90;;;;;;5007718;28;20280;-74
2022/12/14 09:44:23;;;;;;;9.80;6.85;;;2.20;99.90;;;;;;4992661;28;20314;-74
2022/12/14 09:47:16;;;;;;;9.50;5.82;;;2.20;99.90;;;;;;4976887;28;20187;-74
2022/12/14 09:49:53;;;;;;;7.53;5.72;;;2.20;99.90;;;;;;4994570;28;20545;-74
2022/12/14 09:52:50;;;;;;;9.40;4.97;;;2.30;99.90;;;;;;5003621;28;20269;-74
2022/12/14 09:55:25;;;;;;;9.55;7.05;;;2.40;99.90;;;;;;4981998;28;20179;-74
2022/12/14 09:57:58;;;;;;;11.15;7.05;;;2.40;99.90;;;;;;4992126;28;20262;-74
2022/12/14 10:00:30;;;;;;;12.13;5.90;;;2.50;99.90;;;;;;4973719;28;20647;-74
2022/12/14 10:03:13;;;;;;;7.93;6.63;;;2.50;99.90;;;;;;4973709;28;20226;-75
2022/12/14 10:05:48;;;;;;;11.88;7.32;;;2.50;99.90;;;;;;4991531;28;20165;-74
2022/12/14 10:08:25;;;;;;;10.02;6.75;;;2.50;99.90;;;;;;4973970;28;20257;-74
2022/12/14 10:11:28;;;;;;;9.05;7.47;;;2.40;99.90;;;;;;4991774;28;20210;-74
2022/12/14 10:14:19;;;;;;;10.57;6.55;;;2.40;99.90;;;;;;4925465;28;20333;-74
2022/12/14 10:17:04;;;;;;;10.32;6.63;;;2.40;99.90;;;;;;4973848;28;20238;-76
2022/12/14 10:19:53;;;;;;;9.35;6.80;;;2.40;99.90;;;;;;4974481;28;20659;-75
2022/12/14 10:22:32;;;;;;;8.27;6.53;;;2.40;99.90;;;;;;4991201;28;20211;-76
2022/12/14 10:25:26;;;;;;;8.52;5.53;;;2.50;99.90;;;;;;4991918;28;20541;-77
2022/12/14 10:27:59;;;;;;;9.00;5.75;;;2.50;99.90;;;;;;4974767;28;20174;-75
2022/12/14 10:30:25;;;;;;;10.07;5.85;;;2.60;99.90;;;;;;4976422;28;20183;-75
2022/12/14 10:32:58;;;;;;;6.80;5.30;;;2.70;99.90;;;;;;4972947;28;20207;-75
2022/12/14 10:35:45;;;;;;;10.55;6.97;;;2.70;99.90;;;;;;4991621;28;20598;-74
2022/12/14 10:38:38;;;;;;;11.57;7.32;;;2.70;99.90;;;;;;4990792;28;20198;-74
2022/12/14 10:41:17;;;;;;;8.98;7.35;;;2.70;99.90;;;;;;4975850;28;20791;-74
2022/12/14 10:43:53;;;;;;;8.15;5.78;;;2.70;99.90;;;;;;4990540;28;20647;-74
2022/12/14 10:46:22;;;;;;;10.75;8.55;;;2.70;99.90;;;;;;4986001;28;20269;-73
2022/12/14 10:49:16;;;;;;;11.38;8.25;;;2.70;99.90;;;;;;4957133;28;20269;-73
2022/12/14 10:51:54;;;;;;;9.70;6.93;;;2.60;99.90;;;;;;4956555;28;20214;-74
2022/12/14 10:54:26;;;;;;;8.40;6.38;;;2.50;99.90;;;;;;4990658;28;20248;-73
2022/12/14 10:56:52;;;;;;;9.40;6.65;;;2.50;99.90;;;;;;4972882;28;20213;-74
2022/12/14 10:59:22;;;;;;;9.50;5.63;;;2.50;99.90;;;;;;4990312;28;20518;-75
2022/12/14 11:02:00;;;;;;;8.98;6.57;;;2.50;99.90;;;;;;4990001;28;20222;-75
2022/12/14 11:04:31;;;;;;;10.55;7.15;;;2.50;99.90;;;;;;4989666;28;20178;-74
2022/12/14 11:06:58;;;;;;;10.00;6.72;;;2.40;99.90;;;;;;4974059;28;20585;-74
2022/12/14 11:09:25;;;;;;;7.50;6.70;;;2.30;99.90;;;;;;4964771;28;20202;-74
2022/12/14 11:12:16;;;;;;;10.35;7.28;;;2.30;99.90;;;;;;4990586;28;20786;-75
2022/12/14 11:15:02;;;;;;;11.00;7.97;;;2.30;99.90;;;;;;4970080;28;20214;-75
2022/12/14 11:17:32;;;;;;;16.20;6.80;;;2.20;99.90;;;;;;4990379;28;20177;-75
2022/12/14 11:20:07;;;;;;;11.82;7.55;;;2.20;99.90;;;;;;4991124;28;20171;-75
2022/12/14 11:22:54;;;;;;;11.27;8.13;;;2.20;99.90;;;;;;4973855;28;20194;-73
2022/12/14 11:25:39;;;;;;;11.48;7.20;;;2.10;99.90;;;;;;4990357;28;20179;-74
2022/12/14 11:28:29;;;;;;;9.80;6.65;;;2.10;99.90;;;;;;4973792;28;20185;-74
2022/12/14 11:31:02;;;;;;;9.60;7.47;;;2.10;99.90;;;;;;4990959;28;20218;-73
2022/12/14 11:33:39;;;;;;;9.55;6.03;;;2.10;99.90;;;;;;4990265;28;20594;-75
2022/12/14 11:36:07;;;;;;;9.68;6.13;;;2.20;99.90;;;;;;4991283;28;20331;-73
2022/12/14 11:38:33;;;;;;;10.10;5.55;;;2.30;99.90;;;;;;4956945;28;20229;-74
2022/12/14 11:41:02;;;;;;;7.40;6.05;;;2.30;99.90;;;;;;4956516;28;20346;-74
2022/12/14 11:43:33;;;;;;;10.38;7.03;;;2.40;99.90;;;;;;4991477;28;20211;-74
2022/12/14 11:46:01;;;;;;;11.68;6.82;;;2.40;99.90;;;;;;4990992;28;20171;-74
2022/12/14 11:48:28;;;;;;;11.00;7.60;;;2.40;99.90;;;;;;4955676;28;20230;-74
2022/12/14 11:51:07;;;;;;;7.55;6.30;;;2.40;99.90;;;;;;4990458;28;20210;-74
2022/12/14 11:53:33;;;;;;;11.30;7.85;;;2.50;99.90;;;;;;4989990;28;20171;-74
2022/12/14 11:56:03;;;;;;;10.00;7.73;;;2.50;99.90;;;;;;4972780;28;20182;-74
2022/12/14 11:58:51;;;;;;;9.25;6.80;;;2.50;99.90;;;;;;4939830;28;20585;-74
2022/12/14 12:01:23;;;;;;;10.52;6.60;;;2.50;99.90;;;;;;4972352;28;20210;-74
2022/12/14 12:03:52;;;;;;;8.90;6.75;;;2.50;99.90;;;;;;4972605;28;20186;-74
2022/12/14 12:06:21;;;;;;;8.77;6.90;;;2.50;99.90;;;;;;4972377;28;20257;-73
2022/12/14 12:08:57;;;;;;;9.25;7.65;;;2.60;99.90;;;;;;4988299;28;20524;-74
2022/12/14 12:11:27;;;;;;;9.93;8.68;;;2.50;99.90;;;;;;4972374;28;20210;-74
2022/12/14 12:14:21;;;;;;;8.73;6.78;;;2.50;99.90;;;;;;4973640;28;20194;-74
2022/12/14 12:16:47;;;;;;;8.80;7.90;;;2.40;99.90;;;;;;4966994;28;21169;-74
2022/12/14 12:19:25;;;;;;;8.97;7.87;;;2.50;99.90;;;;;;4996838;28;20174;-74
2022/12/14 12:21:52;;;;;;;10.35;7.78;;;2.50;99.90;;;;;;5001989;28;20618;-73
2022/12/14 12:24:30;;;;;;;9.90;7.68;;;2.50;99.90;;;;;;4963181;28;20237;-74
2022/12/14 12:26:58;;;;;;;11.68;8.73;;;2.50;99.90;;;;;;4994100;28;20180;-74
2022/12/14 12:29:39;;;;;;;9.10;6.82;;;2.50;99.90;;;;;;4968994;28;20175;-74
2022/12/14 12:32:07;;;;;;;13.05;8.25;;;2.50;99.90;;;;;;4969095;28;20650;-74
2022/12/14 12:34:37;;;;;;;12.70;9.75;;;2.60;99.90;;;;;;4969588;28;20172;-74
2022/12/14 12:37:10;;;;;;;11.20;7.80;;;2.60;99.90;;;;;;4971925;28;20168;-74
2022/12/14 12:39:41;;;;;;;10.50;8.65;;;2.70;99.90;;;;;;4974988;28;20647;-74
2022/12/14 12:42:28;;;;;;;11.80;9.20;;;2.70;99.90;;;;;;4989130;28;20270;-74
2022/12/14 12:45:01;;;;;;;9.80;7.25;;;2.70;99.90;;;;;;4980635;28;20182;-74
2022/12/14 12:47:36;;;;;;;10.15;6.80;;;2.80;99.90;;;;;;4973538;28;20183;-74
2022/12/14 12:50:25;;;;;;;10.40;6.82;;;2.90;99.90;;;;;;4973270;28;20214;-74
2022/12/14 12:53:10;;;;;;;9.30;7.07;;;2.90;99.90;;;;;;4971589;28;20212;-74
2022/12/14 12:55:41;;;;;;;9.77;6.53;;;3.00;99.90;;;;;;4988701;28;20536;-74
2022/12/14 12:58:23;;;;;;;6.80;5.25;;;3.10;99.90;;;;;;4990365;28;20265;-74
2022/12/14 13:00:54;;;;;;;7.28;5.90;;;3.30;99.90;;;;;;4988856;28;20176;-74
2022/12/14 13:03:25;;;;;;;8.43;6.45;;;3.40;99.90;;;;;;4988264;28;20179;-74
2022/12/14 13:05:54;;;;;;;9.57;7.50;;;3.50;99.90;;;;;;4972391;28;20192;-74
2022/12/14 13:08:30;;;;;;;8.55;6.35;;;3.60;99.90;;;;;;4955939;28;20183;-73
2022/12/14 13:11:00;;;;;;;8.05;7.22;;;3.70;99.90;;;;;;4972995;28;20207;-74
2022/12/14 13:13:31;;;;;;;8.23;6.90;;;3.80;99.90;;;;;;4973566;28;20175;-73
2022/12/14 13:16:06;;;;;;;9.55;7.15;;;3.90;99.90;;;;;;4971601;28;20194;-73
2022/12/14 13:18:38;;;;;;;10.13;7.30;;;4.00;99.90;;;;;;4956626;28;20176;-73
2022/12/14 13:21:31;;;;;;;10.32;7.22;;;4.00;99.90;;;;;;4958842;28;20210;-73
2022/12/14 13:23:57;;;;;;;12.25;7.43;;;4.10;99.90;;;;;;4992914;28;20258;-74
2022/12/14 13:26:49;;;;;;;8.25;6.93;;;4.20;99.90;;;;;;4974952;28;20175;-74
2022/12/14 13:29:30;;;;;;;9.90;8.13;;;4.20;99.90;;;;;;4974925;28;20186;-74
2022/12/14 13:32:27;;;;;;;9.85;7.63;;;4.30;99.90;;;;;;4975069;28;20548;-74
2022/12/14 13:34:59;;;;;;;11.93;7.25;;;4.40;99.90;;;;;;4970802;28;20191;-74
2022/12/14 13:37:37;;;;;;;12.55;7.97;;;4.40;99.90;;;;;;4977981;28;20261;-74
2022/12/14 13:40:26;;;;;;;8.48;7.13;;;4.50;99.90;;;;;;4974334;28;20198;-74
2022/12/14 13:43:06;;;;;;;8.68;7.20;;;4.60;99.90;;;;;;4974353;28;20234;-74